Time;durP1;ratioP1;P1;durP2;ratioP2;P2;SDS_P1;SDS_P2;PMS_P1;PMS_P2;Temp;Humidity;BMP_temperature;BMP_pressure;BME280_temperature;BME280_humidity;BME280_pressure;Samples;Min_cycle;Max_cycle;Signal;HPM_P1;HPM_P2
2023/01/02 00:01:47;;;;;;;44.40;40.40;;;;;;;3.75;94.25;98570.38;104820;1327;22689;-89
2023/01/02 00:04:15;;;;;;;48.50;44.10;;;;;;;3.76;94.38;98569.70;104971;1326;22765;-88
2023/01/02 00:06:43;;;;;;;44.90;40.50;;;;;;;3.73;94.88;98570.45;104930;1326;22811;-90
2023/01/02 00:09:11;;;;;;;44.40;40.10;;;;;;;3.69;95.79;98570.46;104944;1326;22180;-90
2023/01/02 00:11:39;;;;;;;41.60;37.70;;;;;;;3.63;95.19;98571.23;104974;1326;22180;-89
2023/01/02 00:14:07;;;;;;;57.70;52.40;;;;;;;3.67;94.78;98569.68;105066;1326;22174;-89
2023/01/02 00:16:35;;;;;;;42.80;38.90;;;;;;;3.69;94.48;98570.31;104880;1327;22786;-89
2023/01/02 00:19:03;;;;;;;46.40;42.20;;;;;;;3.74;94.34;98561.25;104864;1327;22276;-87
2023/01/02 00:21:31;;;;;;;45.40;41.50;;;;;;;3.86;94.31;98564.97;104913;1326;22124;-89
2023/01/02 00:24:01;;;;;;;41.00;37.20;;;;;;;3.96;95.10;98566.55;104952;1317;22773;-89
2023/01/02 00:26:29;;;;;;;41.90;37.80;;;;;;;4.07;94.97;98563.77;104908;1302;22193;-88
2023/01/02 00:28:57;;;;;;;38.70;34.80;;;;;;;4.13;94.41;98560.55;104907;1325;22747;-88
2023/01/02 00:31:52;;;;;;;36.90;33.30;;;;;;;4.12;94.47;98559.48;104983;1326;22190;-87
2023/01/02 00:34:20;;;;;;;42.50;38.70;;;;;;;4.11;94.79;98564.73;104967;1318;22114;-86
2023/01/02 00:36:48;;;;;;;43.60;39.80;;;;;;;4.07;93.95;98569.05;104889;1327;22208;-92
2023/01/02 00:39:21;;;;;;;40.90;37.00;;;;;;;4.00;93.98;98571.27;104857;1326;22097;-93
2023/01/02 00:41:50;;;;;;;39.50;35.60;;;;;;;3.94;94.03;98567.00;105059;1327;22080;-92
2023/01/02 00:44:18;;;;;;;37.80;34.30;;;;;;;3.98;94.20;98569.20;105013;1327;22835;-92
2023/01/02 00:46:46;;;;;;;38.10;34.40;;;;;;;3.96;94.35;98572.20;104927;1327;22321;-92
2023/01/02 00:53:57;;;;;;;41.70;37.80;;;;;;;3.70;94.78;98574.66;104994;1326;22157;-92
2023/01/02 00:56:25;;;;;;;43.10;39.20;;;;;;;3.74;94.92;98571.75;104923;1327;22233;-92
2023/01/02 00:58:53;;;;;;;38.40;34.70;;;;;;;3.75;94.84;98566.23;104817;1327;22163;-89
2023/01/02 01:02:16;;;;;;;39.10;35.40;;;;;;;3.75;95.20;98567.77;104938;1327;22732;-91
2023/01/02 01:04:45;;;;;;;46.40;42.20;;;;;;;3.70;95.38;98569.95;105160;1320;22077;-88
2023/01/02 01:07:13;;;;;;;44.30;40.10;;;;;;;3.71;95.58;98566.89;104888;1314;22178;-88
2023/01/02 01:09:41;;;;;;;47.30;42.90;;;;;;;3.79;95.37;98566.08;104891;1327;22224;-88
2023/01/02 01:12:09;;;;;;;39.10;35.50;;;;;;;3.78;95.01;98566.49;104988;1327;22255;-87
2023/01/02 01:14:37;;;;;;;41.60;37.80;;;;;;;3.72;94.47;98559.87;104847;1327;22807;-89
2023/01/02 01:17:05;;;;;;;43.40;39.30;;;;;;;3.64;94.50;98554.20;104932;1327;22746;-88
2023/01/02 01:19:34;;;;;;;41.10;37.20;;;;;;;3.64;94.76;98552.20;105001;1327;22205;-89
2023/01/02 01:22:03;;;;;;;36.70;33.30;;;;;;;3.70;94.92;98549.13;105285;1320;22114;-86
2023/01/02 01:24:31;;;;;;;34.60;31.60;;;;;;;3.75;94.64;98548.58;104786;1327;22168;-91
2023/01/02 01:27:30;;;;;;;36.00;32.80;;;;;;;3.73;94.97;98551.73;105004;1327;22131;-87
2023/01/02 01:29:59;;;;;;;41.20;37.10;;;;;;;3.67;96.17;98550.00;104898;1327;22112;-89
2023/01/02 01:32:30;;;;;;;44.50;40.40;;;;;;;3.61;96.55;98551.25;104881;1327;22218;-87
2023/01/02 01:34:58;;;;;;;39.30;35.20;;;;;;;3.55;96.65;98548.05;104789;1305;22218;-86
2023/01/02 01:37:26;;;;;;;40.50;36.60;;;;;;;3.48;96.17;98548.17;104845;1327;22131;-88
2023/01/02 01:39:54;;;;;;;35.20;31.80;;;;;;;3.48;95.59;98545.60;104812;1327;22204;-88
2023/01/02 01:42:24;;;;;;;38.20;34.00;;;;;;;3.53;95.75;98538.08;104885;1327;22264;-88
2023/01/02 01:44:53;;;;;;;44.20;39.30;;;;;;;3.59;95.40;98536.92;104861;1327;22258;-86
2023/01/02 01:47:21;;;;;;;41.00;37.00;;;;;;;3.53;96.32;98538.45;104813;1327;22859;-89
2023/01/02 01:49:57;;;;;;;38.20;34.70;;;;;;;3.47;96.41;98537.34;104919;1326;22124;-86
2023/01/02 01:52:35;;;;;;;36.00;32.30;;;;;;;3.44;95.96;98528.21;104768;1327;22090;-87
2023/01/02 01:55:35;;;;;;;34.20;30.80;;;;;;;3.44;95.91;98523.73;104871;1322;22696;-87
2023/01/02 01:58:17;;;;;;;39.70;35.80;;;;;;;3.54;95.94;98512.30;104939;1327;22194;-88
2023/01/02 02:00:45;;;;;;;45.00;40.50;;;;;;;3.60;96.47;98512.05;104812;1323;22756;-87
2023/01/02 02:03:19;;;;;;;56.00;50.10;;;;;;;3.55;97.33;98512.49;104842;1327;22158;-88
2023/01/02 02:05:47;;;;;;;47.30;42.70;;;;;;;3.46;97.66;98515.08;104821;1327;22192;-88
2023/01/02 02:08:23;;;;;;;38.00;34.20;;;;;;;3.33;97.63;98518.36;104879;1327;22192;-87
2023/01/02 02:10:53;;;;;;;37.80;34.00;;;;;;;3.28;98.27;98511.21;105287;1312;22849;-84
2023/01/02 02:13:22;;;;;;;38.70;35.10;;;;;;;3.29;97.38;98508.35;104936;1325;22188;-86
2023/01/02 02:16:24;;;;;;;36.00;32.50;;;;;;;3.29;96.83;98503.94;104859;1327;22813;-85
2023/01/02 02:19:36;;;;;;;52.30;47.30;;;;;;;3.25;96.29;98495.29;105009;1320;23137;-86
2023/01/02 02:22:29;;;;;;;42.00;37.90;;;;;;;3.21;96.48;98491.90;104939;1327;22206;-87
2023/01/02 02:25:15;;;;;;;44.00;39.80;;;;;;;3.23;96.68;98487.64;104951;1320;22351;-86
2023/01/02 02:28:08;;;;;;;38.10;34.20;;;;;;;3.19;96.48;98481.44;105345;1320;22203;-85
2023/01/02 02:30:42;;;;;;;36.90;33.40;;;;;;;3.29;96.93;98478.05;105328;1320;22126;-86
2023/01/02 02:33:25;;;;;;;36.10;32.70;;;;;;;3.36;96.75;98475.80;104919;1322;22107;-85
2023/01/02 02:36:17;;;;;;;42.10;38.10;;;;;;;3.33;97.09;98474.19;105100;1320;22182;-85
2023/01/02 02:39:15;;;;;;;43.90;39.60;;;;;;;3.27;97.64;98474.12;104778;1316;22227;-85
2023/01/02 02:42:10;;;;;;;39.90;36.20;;;;;;;3.18;97.45;98476.67;104801;1327;22366;-86
2023/01/02 02:44:52;;;;;;;37.70;33.90;;;;;;;3.14;98.52;98472.61;104830;1327;22199;-86
2023/01/02 02:47:45;;;;;;;37.40;33.60;;;;;;;3.17;98.53;98475.02;104862;1322;22822;-83
2023/01/02 02:50:25;;;;;;;39.20;35.70;;;;;;;3.22;98.62;98476.79;104882;1327;22198;-84
2023/01/02 02:53:04;;;;;;;37.90;34.30;;;;;;;3.16;98.45;98481.80;104919;1326;22228;-86
2023/01/02 02:55:44;;;;;;;39.60;35.90;;;;;;;3.08;98.24;98480.31;105012;1320;22090;-86
2023/01/02 02:58:14;;;;;;;41.30;37.50;;;;;;;3.05;98.02;98482.21;104933;1327;23127;-86
2023/01/02 03:00:42;;;;;;;44.90;40.50;;;;;;;3.03;98.46;98477.43;104911;1327;22193;-85
2023/01/02 03:03:23;;;;;;;47.80;43.40;;;;;;;2.93;98.21;98472.82;104895;1327;22109;-85
2023/01/02 03:06:16;;;;;;;55.70;50.50;;;;;;;2.90;98.03;98467.00;104900;1322;22135;-84
2023/01/02 03:09:08;;;;;;;38.00;34.10;;;;;;;2.89;97.83;98464.75;105318;1320;22200;-86
2023/01/02 03:11:54;;;;;;;57.90;52.40;;;;;;;2.91;98.71;98466.34;104867;1327;22872;-84
2023/01/02 03:15:04;;;;;;;38.70;35.00;;;;;;;2.96;98.23;98464.04;105123;1308;23388;-86
2023/01/02 03:17:51;;;;;;;40.50;36.80;;;;;;;2.98;97.81;98457.54;104830;1327;22123;-84
2023/01/02 03:20:24;;;;;;;45.00;41.20;;;;;;;2.96;98.42;98461.74;104857;1322;22076;-85
2023/01/02 03:22:58;;;;;;;39.60;36.00;;;;;;;2.96;98.68;98456.38;104873;1327;22939;-85
2023/01/02 03:25:28;;;;;;;36.40;33.00;;;;;;;3.03;98.61;98458.70;104709;1327;22194;-85
2023/01/02 03:28:02;;;;;;;57.10;52.20;;;;;;;3.02;98.46;98461.44;104855;1327;22192;-85
2023/01/02 03:30:33;;;;;;;39.30;35.70;;;;;;;3.03;98.10;98465.34;104759;1327;22594;-85
2023/01/02 03:33:15;;;;;;;37.80;34.20;;;;;;;3.05;97.67;98468.90;104763;1322;22088;-85
2023/01/02 03:35:48;;;;;;;39.30;35.70;;;;;;;3.05;97.66;98470.39;104759;1327;22207;-84
2023/01/02 03:38:42;;;;;;;42.60;38.70;;;;;;;3.05;97.55;98470.91;104895;1327;22214;-84
2023/01/02 03:41:17;;;;;;;42.40;38.50;;;;;;;3.03;97.76;98469.55;105275;1320;22197;-85
2023/01/02 03:43:49;;;;;;;42.50;38.60;;;;;;;3.08;97.53;98466.67;104805;1327;22217;-85
2023/01/02 03:46:49;;;;;;;41.80;38.00;;;;;;;3.15;97.89;98461.39;104755;1324;22150;-85
2023/01/02 03:49:24;;;;;;;41.10;37.10;;;;;;;3.22;97.50;98454.85;104758;1327;22242;-85
2023/01/02 03:51:53;;;;;;;50.90;46.30;;;;;;;3.17;96.78;98450.23;104734;1327;22253;-85
2023/01/02 03:54:21;;;;;;;48.60;44.20;;;;;;;3.07;96.94;98449.98;104893;1327;22222;-86
2023/01/02 03:57:07;;;;;;;47.20;42.90;;;;;;;3.05;97.40;98449.95;104793;1327;22207;-85
2023/01/02 03:59:40;;;;;;;43.70;39.70;;;;;;;3.05;97.47;98454.52;105314;1320;22216;-85
2023/01/02 04:02:24;;;;;;;40.70;36.90;;;;;;;3.05;97.21;98454.03;104860;1327;22531;-86
2023/01/02 04:04:53;;;;;;;41.80;38.00;;;;;;;3.07;97.29;98447.27;105256;1320;22198;-87
2023/01/02 04:07:46;;;;;;;38.60;35.10;;;;;;;3.09;97.12;98446.79;104760;1327;22907;-85
2023/01/02 04:10:15;;;;;;;37.10;33.80;;;;;;;3.10;97.31;98447.70;105347;1305;22795;-85
2023/01/02 04:12:49;;;;;;;39.10;35.50;;;;;;;2.96;97.04;98452.48;104863;1327;22264;-86
2023/01/02 04:15:21;;;;;;;36.20;32.50;;;;;;;2.74;97.18;98457.71;104911;1327;22235;-86
2023/01/02 04:18:11;;;;;;;33.50;30.30;;;;;;;2.62;97.36;98462.89;104779;1327;22119;-86
2023/01/02 04:20:45;;;;;;;37.60;34.00;;;;;;;2.64;98.10;98459.27;104807;1327;22079;-86
2023/01/02 04:23:19;;;;;;;38.30;34.60;;;;;;;2.73;98.09;98456.22;105043;1320;22248;-86
2023/01/02 04:25:51;;;;;;;53.10;48.20;;;;;;;2.86;98.32;98450.58;104856;1327;22121;-86
2023/01/02 04:28:26;;;;;;;52.10;46.90;;;;;;;2.97;98.40;98447.23;105329;1320;22180;-85
2023/01/02 04:31:04;;;;;;;48.80;44.30;;;;;;;3.05;98.36;98442.93;104912;1326;22868;-85
2023/01/02 04:33:39;;;;;;;43.50;39.30;;;;;;;3.09;98.07;98443.98;104884;1327;22920;-84
2023/01/02 04:36:12;;;;;;;42.80;38.60;;;;;;;3.12;98.06;98443.23;104992;1314;22259;-85
2023/01/02 04:38:41;;;;;;;39.60;35.90;;;;;;;3.21;97.98;98439.33;104727;1324;22188;-85
2023/01/02 04:41:15;;;;;;;42.60;38.60;;;;;;;3.25;97.59;98434.89;104904;1327;22090;-84
2023/01/02 04:43:43;;;;;;;43.20;39.20;;;;;;;3.28;97.37;98433.17;104910;1327;21986;-84
2023/01/02 04:46:11;;;;;;;41.90;38.00;;;;;;;3.32;97.59;98435.48;105352;1304;22882;-85
2023/01/02 04:48:40;;;;;;;39.30;35.60;;;;;;;3.34;97.83;98430.31;105192;1313;22328;-84
2023/01/02 04:51:08;;;;;;;40.00;35.90;;;;;;;3.37;98.06;98425.85;104888;1327;22298;-83
2023/01/02 04:53:36;;;;;;;36.80;33.30;;;;;;;3.42;98.01;98420.71;105314;1311;22957;-85
2023/01/02 04:56:04;;;;;;;36.20;32.50;;;;;;;3.46;97.65;98413.20;104901;1327;22093;-83
2023/01/02 04:58:32;;;;;;;36.00;32.50;;;;;;;3.49;97.46;98413.15;104886;1327;22205;-84
2023/01/02 05:01:00;;;;;;;34.90;31.80;;;;;;;3.54;97.92;98411.75;104784;1324;22239;-84
2023/01/02 05:03:28;;;;;;;38.00;34.70;;;;;;;3.51;97.10;98415.22;104854;1327;22184;-85
2023/01/02 05:06:00;;;;;;;45.30;41.30;;;;;;;3.44;97.00;98412.43;105315;1312;22123;-83
2023/01/02 05:08:28;;;;;;;42.10;38.40;;;;;;;3.45;97.75;98408.08;104927;1326;22203;-84
2023/01/02 05:11:04;;;;;;;41.90;38.00;;;;;;;3.51;97.96;98406.33;104888;1327;22172;-84
2023/01/02 05:13:32;;;;;;;37.80;34.20;;;;;;;3.60;97.94;98401.61;105090;1320;22178;-83
2023/01/02 05:16:00;;;;;;;41.20;37.30;;;;;;;3.66;97.99;98400.97;105355;1316;22192;-83
2023/01/02 05:18:30;;;;;;;35.60;32.20;;;;;;;3.76;98.14;98397.58;104926;1321;22200;-84
2023/01/02 05:21:03;;;;;;;34.30;31.00;;;;;;;3.87;98.38;98392.52;104791;1327;22156;-83
2023/01/02 05:23:49;;;;;;;33.60;30.40;;;;;;;4.04;98.56;98398.22;105010;1320;22057;-83
2023/01/02 05:26:18;;;;;;;45.60;41.50;;;;;;;4.08;97.97;98399.20;105377;1320;22247;-83
2023/01/02 05:28:45;;;;;;;51.10;46.60;;;;;;;4.03;97.40;98400.86;104887;1327;22100;-84
2023/01/02 05:31:14;;;;;;;51.10;46.50;;;;;;;3.95;97.16;98401.42;104809;1327;22300;-83
2023/01/02 05:33:42;;;;;;;46.00;41.90;;;;;;;3.89;97.25;98400.17;105042;1320;22154;-84
2023/01/02 05:36:10;;;;;;;49.70;45.40;;;;;;;3.84;97.15;98395.34;104901;1322;22189;-84
2023/01/02 05:38:38;;;;;;;61.40;55.30;;;;;;;3.83;97.16;98397.05;104872;1321;22123;-85
2023/01/02 05:41:07;;;;;;;59.20;54.00;;;;;;;3.83;97.40;98397.09;104970;1320;22165;-84
2023/01/02 05:43:36;;;;;;;67.00;61.20;;;;;;;3.81;97.47;98397.64;104911;1327;22919;-84
2023/01/02 05:46:13;;;;;;;41.70;37.70;;;;;;;3.77;97.64;98392.40;104887;1327;22923;-83
2023/01/02 05:48:41;;;;;;;32.70;29.50;;;;;;;3.79;97.79;98393.30;104895;1327;22102;-83
2023/01/02 05:51:12;;;;;;;34.60;31.30;;;;;;;3.86;98.27;98390.42;104753;1318;22143;-83
2023/01/02 05:53:40;;;;;;;44.60;40.10;;;;;;;3.96;98.59;98389.83;104888;1327;22096;-85
2023/01/02 05:56:11;;;;;;;42.30;37.90;;;;;;;4.08;98.43;98390.32;104910;1327;22219;-84
2023/01/02 05:58:42;;;;;;;37.50;33.90;;;;;;;4.18;98.36;98388.66;104879;1327;22230;-84
2023/01/02 06:01:28;;;;;;;33.90;30.80;;;;;;;4.25;98.66;98393.17;105049;1300;22092;-85
2023/01/02 06:03:59;;;;;;;29.90;27.20;;;;;;;4.27;99.19;98391.55;104888;1323;22840;-84
2023/01/02 06:06:36;;;;;;;28.90;25.80;;;;;;;4.28;99.39;98388.48;104999;1320;22116;-84
2023/01/02 06:09:11;;;;;;;29.20;26.40;;;;;;;4.35;99.18;98389.65;104910;1327;22230;-84
2023/01/02 06:11:40;;;;;;;25.90;23.30;;;;;;;4.39;99.04;98395.04;104772;1325;22650;-84
2023/01/02 06:14:09;;;;;;;26.80;24.00;;;;;;;4.39;99.13;98395.99;104849;1327;22318;-84
2023/01/02 06:16:38;;;;;;;25.10;22.60;;;;;;;4.36;98.77;98395.63;104922;1327;22823;-84
2023/01/02 06:19:07;;;;;;;36.00;32.80;;;;;;;4.33;99.11;98397.68;104928;1325;22893;-83
2023/01/02 06:21:35;;;;;;;28.60;26.00;;;;;;;4.32;99.09;98402.67;104907;1327;22400;-83
2023/01/02 06:24:03;;;;;;;29.10;25.60;;;;;;;4.28;98.59;98412.38;104875;1327;22672;-85
2023/01/02 06:26:36;;;;;;;27.80;24.80;;;;;;;4.25;98.61;98415.70;104958;1326;22091;-85
2023/01/02 06:29:04;;;;;;;27.80;25.00;;;;;;;4.10;98.75;98421.45;105373;1320;22084;-85
2023/01/02 06:31:32;;;;;;;28.30;25.60;;;;;;;3.95;99.39;98424.69;104795;1327;22091;-85
2023/01/02 06:34:02;;;;;;;37.60;34.00;;;;;;;3.83;99.28;98428.50;104853;1319;22191;-85
2023/01/02 06:36:33;;;;;;;33.30;30.00;;;;;;;3.78;99.55;98428.25;104785;1327;22079;-85
2023/01/02 06:39:01;;;;;;;38.40;34.00;;;;;;;3.83;99.78;98429.98;104803;1327;22136;-85
2023/01/02 06:41:30;;;;;;;43.80;39.20;;;;;;;3.88;99.48;98426.37;104862;1327;22072;-84
2023/01/02 06:43:58;;;;;;;40.40;36.60;;;;;;;3.91;99.41;98428.40;104822;1327;22109;-84
2023/01/02 06:47:17;;;;;;;35.40;32.10;;;;;;;3.98;99.64;98430.65;104811;1327;22106;-84
2023/01/02 06:49:45;;;;;;;35.30;32.00;;;;;;;4.08;99.60;98426.29;104960;1327;22119;-85
2023/01/02 06:52:13;;;;;;;36.60;33.10;;;;;;;4.08;98.97;98427.07;104911;1327;22552;-84
2023/01/02 06:54:41;;;;;;;40.10;36.00;;;;;;;3.97;98.87;98428.88;104933;1327;22095;-85
2023/01/02 06:57:10;;;;;;;40.70;36.90;;;;;;;3.95;99.78;98422.52;104819;1327;22073;-85
2023/01/02 06:59:38;;;;;;;45.70;41.30;;;;;;;3.96;99.89;98424.05;104823;1327;22852;-86
2023/01/02 07:02:06;;;;;;;43.50;39.50;;;;;;;3.96;99.53;98419.52;104937;1327;22555;-85
2023/01/02 07:04:33;;;;;;;38.20;34.50;;;;;;;3.93;99.92;98420.28;104791;1315;22118;-85
2023/01/02 07:07:02;;;;;;;39.80;35.90;;;;;;;3.85;99.77;98423.41;104927;1326;22116;-85
2023/01/02 07:09:30;;;;;;;40.10;36.30;;;;;;;3.76;99.74;98425.02;104795;1327;22163;-85
2023/01/02 07:11:58;;;;;;;39.00;35.40;;;;;;;3.74;99.81;98424.67;104805;1327;22258;-85
2023/01/02 07:14:27;;;;;;;36.70;32.90;;;;;;;3.78;99.50;98424.20;104852;1326;22182;-84
2023/01/02 07:16:55;;;;;;;41.70;37.80;;;;;;;3.82;99.33;98426.40;104822;1327;22165;-85
2023/01/02 07:19:23;;;;;;;41.80;37.50;;;;;;;3.85;99.26;98424.89;104871;1327;22152;-84
2023/01/02 07:21:51;;;;;;;45.30;41.00;;;;;;;3.84;98.98;98420.84;104791;1323;22106;-84
2023/01/02 07:24:19;;;;;;;108.90;97.60;;;;;;;3.83;99.23;98418.70;104788;1327;22231;-85
2023/01/02 07:26:47;;;;;;;46.10;42.20;;;;;;;3.85;99.16;98413.52;104817;1327;22201;-84
2023/01/02 07:29:15;;;;;;;39.60;35.90;;;;;;;3.80;99.29;98417.67;104898;1327;22943;-85
2023/01/02 07:31:43;;;;;;;45.00;41.00;;;;;;;3.69;99.09;98410.98;105307;1319;22185;-84
2023/01/02 07:34:11;;;;;;;37.80;33.90;;;;;;;3.77;99.51;98410.97;104771;1324;22233;-84
2023/01/02 07:36:39;;;;;;;33.70;30.40;;;;;;;3.87;99.82;98412.73;105214;1320;138527;-83
2023/01/02 07:39:07;;;;;;;36.50;32.80;;;;;;;4.00;99.94;98413.83;104847;1327;22122;-84
2023/01/02 07:41:35;;;;;;;38.80;35.40;;;;;;;4.09;99.91;98410.93;104815;1322;22092;-85
2023/01/02 07:44:12;;;;;;;39.90;36.40;;;;;;;4.17;99.79;98412.54;104891;1327;22285;-84
2023/01/02 07:46:40;;;;;;;42.90;39.00;;;;;;;4.20;99.45;98409.05;104789;1327;22266;-85
2023/01/02 07:49:11;;;;;;;40.70;36.80;;;;;;;4.24;99.48;98407.84;105342;1320;22172;-85
2023/01/02 07:51:39;;;;;;;41.30;37.50;;;;;;;4.30;99.27;98411.41;104915;1326;22246;-86
2023/01/02 07:54:07;;;;;;;42.00;38.00;;;;;;;4.33;98.89;98408.83;104901;1327;22294;-84
2023/01/02 07:56:35;;;;;;;42.60;38.70;;;;;;;4.41;99.18;98413.20;105230;1320;22087;-84
2023/01/02 07:59:03;;;;;;;45.10;41.20;;;;;;;4.46;99.19;98410.13;104839;1327;22105;-85
2023/01/02 08:01:31;;;;;;;49.20;44.50;;;;;;;4.51;99.23;98412.80;105435;1320;22092;-86
2023/01/02 08:04:00;;;;;;;42.00;38.00;;;;;;;4.55;99.41;98416.17;104991;1311;22079;-83
2023/01/02 08:06:29;;;;;;;37.40;34.00;;;;;;;4.61;99.48;98415.86;105348;1317;22195;-84
2023/01/02 08:08:57;;;;;;;46.50;42.10;;;;;;;4.69;99.67;98414.48;105007;1327;22745;-83
2023/01/02 08:11:29;;;;;;;34.10;30.60;;;;;;;4.81;99.68;98410.73;104969;1321;22138;-87
2023/01/02 08:13:57;;;;;;;46.50;42.20;;;;;;;4.94;99.71;98409.55;105039;1315;22179;-86
2023/01/02 08:16:25;;;;;;;39.70;36.10;;;;;;;5.02;99.72;98408.69;104912;1326;22256;-84
2023/01/02 08:18:54;;;;;;;42.90;39.00;;;;;;;5.11;99.99;98406.06;105356;1320;22124;-85
2023/01/02 08:21:24;;;;;;;47.80;43.40;;;;;;;5.21;100.00;98410.86;104902;1327;23043;-85
2023/01/02 08:23:52;;;;;;;45.00;41.00;;;;;;;5.30;99.76;98411.38;105287;1318;22205;-85
2023/01/02 08:26:22;;;;;;;53.00;48.00;;;;;;;5.33;99.23;98414.14;104870;1327;22384;-85
2023/01/02 08:28:50;;;;;;;51.30;46.80;;;;;;;5.37;99.16;98409.64;104871;1327;22236;-85
2023/01/02 08:31:20;;;;;;;60.40;54.90;;;;;;;5.41;99.35;98410.01;104833;1327;22695;-85
2023/01/02 08:33:49;;;;;;;64.00;58.30;;;;;;;5.44;99.44;98409.23;104870;1327;22147;-84
2023/01/02 08:36:18;;;;;;;63.40;57.70;;;;;;;5.49;99.57;98404.79;104911;1327;22181;-83
2023/01/02 08:38:46;;;;;;;58.00;52.70;;;;;;;5.57;99.62;98404.06;105402;1311;22228;-87
2023/01/02 08:41:14;;;;;;;60.70;54.80;;;;;;;5.65;99.49;98406.93;105094;1311;22799;-83
2023/01/02 08:43:42;;;;;;;70.30;63.50;;;;;;;5.74;99.70;98406.17;104936;1327;22175;-84
2023/01/02 08:46:10;;;;;;;83.20;75.50;;;;;;;5.82;99.56;98402.19;104920;1327;22625;-84
2023/01/02 08:48:38;;;;;;;86.40;78.10;;;;;;;5.89;99.65;98404.02;104936;1327;22260;-85
2023/01/02 08:51:06;;;;;;;103.50;92.40;;;;;;;5.91;99.35;98403.45;104926;1327;22153;-86
2023/01/02 08:53:34;;;;;;;93.60;84.10;;;;;;;5.94;99.49;98402.73;104907;1327;22988;-83
2023/01/02 08:56:22;;;;;;;95.10;86.00;;;;;;;6.01;99.83;98405.36;105326;1308;22191;-83
2023/01/02 08:58:51;;;;;;;67.00;60.40;;;;;;;6.14;99.98;98398.45;104947;1327;22281;-83
2023/01/02 09:01:20;;;;;;;96.30;86.80;;;;;;;6.29;99.95;98399.99;105236;1311;22298;-84
2023/01/02 09:03:50;;;;;;;97.70;88.30;;;;;;;6.37;99.45;98397.85;104889;1327;22424;-84
2023/01/02 09:06:18;;;;;;;64.10;58.40;;;;;;;6.45;99.78;98398.10;104814;1327;22191;-83
2023/01/02 09:08:54;;;;;;;56.40;51.20;;;;;;;6.54;100.00;98392.26;104755;1327;22263;-82
2023/01/02 09:11:25;;;;;;;45.30;41.20;;;;;;;6.63;100.00;98388.88;104767;1327;22822;-81
2023/01/02 09:13:55;;;;;;;32.00;28.80;;;;;;;6.74;100.00;98385.71;104761;1327;22903;-82
2023/01/02 09:16:23;;;;;;;29.60;26.70;;;;;;;6.89;100.00;98382.45;104928;1327;22265;-82
2023/01/02 09:18:51;;;;;;;28.60;25.60;;;;;;;7.04;99.97;98380.47;104779;1327;22235;-86
2023/01/02 09:21:19;;;;;;;25.30;22.80;;;;;;;7.21;100.00;98381.85;104941;1326;22241;-82
2023/01/02 09:23:47;;;;;;;23.00;20.60;;;;;;;7.37;99.98;98377.75;104862;1327;22195;-84
2023/01/02 09:26:16;;;;;;;23.00;20.60;;;;;;;7.52;100.00;98374.23;105334;1319;22912;-85
2023/01/02 09:28:44;;;;;;;23.50;21.00;;;;;;;7.65;100.00;98372.95;104922;1327;22189;-84
2023/01/02 09:31:14;;;;;;;20.70;18.60;;;;;;;7.78;99.95;98369.69;104838;1327;22117;-84
2023/01/02 09:33:44;;;;;;;19.00;17.00;;;;;;;7.93;99.96;98362.75;104747;1327;22209;-85
2023/01/02 09:36:15;;;;;;;18.00;15.40;;;;;;;8.10;100.00;98360.86;104775;1327;22123;-90
2023/01/02 09:38:59;;;;;;;18.90;14.60;;;;;;;8.30;99.96;98358.29;104817;1302;22306;-89
2023/01/02 09:41:39;;;;;;;17.50;15.60;;;;;;;8.48;99.87;98351.88;104842;1322;22213;-92
2023/01/02 09:44:29;;;;;;;14.80;12.40;;;;;;;8.66;99.64;98344.35;105027;1307;22180;-90
2023/01/02 09:47:11;;;;;;;16.40;13.70;;;;;;;8.82;99.53;98340.73;104883;1325;22104;-91
2023/01/02 09:50:05;;;;;;;19.80;13.70;;;;;;;9.00;99.83;98343.86;104967;1327;22223;-91
2023/01/02 09:52:42;;;;;;;22.10;19.40;;;;;;;9.22;99.48;98345.67;104835;1322;22213;-86
2023/01/02 09:55:15;;;;;;;30.90;27.60;;;;;;;9.41;99.18;98346.89;105423;1320;22212;-85
2023/01/02 09:58:06;;;;;;;32.20;28.80;;;;;;;9.58;98.85;98344.82;105437;1296;22194;-85
2023/01/02 10:00:37;;;;;;;39.60;35.60;;;;;;;9.72;98.77;98343.16;104786;1326;22230;-86
2023/01/02 10:03:22;;;;;;;47.00;42.70;;;;;;;9.84;98.64;98343.65;105421;1318;22174;-84
2023/01/02 10:06:12;;;;;;;36.40;32.80;;;;;;;9.94;98.38;98335.48;104947;1327;22684;-84
2023/01/02 10:09:11;;;;;;;32.20;25.80;;;;;;;10.05;98.10;98329.14;104918;1305;22079;-84
2023/01/02 10:11:42;;;;;;;22.30;19.90;;;;;;;10.20;98.09;98324.19;104938;1327;22218;-84
2023/01/02 10:14:27;;;;;;;20.90;17.80;;;;;;;10.33;97.28;98321.42;104825;1328;22113;-84
2023/01/02 10:17:06;;;;;;;17.60;13.90;;;;;;;10.46;96.86;98326.95;104955;1320;22061;-84
2023/01/02 10:19:47;;;;;;;19.60;13.40;;;;;;;10.53;96.97;98324.48;104862;1306;22849;-85
2023/01/02 10:22:25;;;;;;;16.60;12.30;;;;;;;10.61;95.46;98323.73;104942;1326;22187;-84
2023/01/02 10:25:28;;;;;;;14.90;12.20;;;;;;;10.68;95.53;98324.10;104755;1327;23396;-84
2023/01/02 10:28:05;;;;;;;13.70;12.30;;;;;;;10.72;94.63;98323.61;104319;1335;22259;-83
2023/01/02 10:30:41;;;;;;;14.60;13.00;;;;;;;10.77;94.97;98314.89;104308;1335;22258;-85
2023/01/02 10:33:18;;;;;;;23.10;15.00;;;;;;;10.80;93.70;98318.27;104294;1335;22220;-84
2023/01/02 10:35:52;;;;;;;16.40;13.90;;;;;;;10.82;92.42;98313.99;104238;1335;22191;-83
2023/01/02 10:38:20;;;;;;;18.40;14.80;;;;;;;10.88;93.23;98307.77;104316;1310;22142;-83
2023/01/02 10:40:50;;;;;;;18.60;14.50;;;;;;;10.97;93.64;98302.96;104431;1333;22214;-84
2023/01/02 10:43:18;;;;;;;15.60;13.80;;;;;;;11.03;93.13;98299.42;104603;1311;22232;-84
2023/01/02 10:45:46;;;;;;;18.50;13.00;;;;;;;11.09;92.67;98298.52;104403;1335;22143;-84
2023/01/02 10:48:14;;;;;;;16.10;13.10;;;;;;;11.16;92.95;98289.63;104276;1312;22143;-84
2023/01/02 10:50:50;;;;;;;17.40;14.40;;;;;;;11.21;91.94;98283.73;104330;1333;22181;-84
2023/01/02 10:53:36;;;;;;;18.10;13.30;;;;;;;11.26;92.21;98278.60;104397;1312;22212;-85
2023/01/02 10:56:24;;;;;;;14.40;12.50;;;;;;;11.29;90.86;98281.98;104708;1325;22229;-86
2023/01/02 10:58:52;;;;;;;16.50;14.30;;;;;;;11.33;91.56;98281.72;104353;1328;22355;-83
2023/01/02 11:01:21;;;;;;;16.60;13.40;;;;;;;11.37;90.71;98279.11;104384;1334;22168;-84
2023/01/02 11:03:58;;;;;;;16.20;13.40;;;;;;;11.44;91.21;98275.77;104862;1320;22223;-83
2023/01/02 11:06:30;;;;;;;18.30;14.20;;;;;;;11.52;90.92;98271.09;105413;1318;22799;-83
2023/01/02 11:09:21;;;;;;;15.60;12.40;;;;;;;11.64;91.01;98270.42;104890;1327;22169;-82
2023/01/02 11:11:55;;;;;;;13.30;11.90;;;;;;;11.75;90.27;98263.75;105427;1319;22189;-83
2023/01/02 11:14:31;;;;;;;13.40;11.80;;;;;;;11.82;90.04;98260.92;105400;1320;22108;-82
2023/01/02 11:17:10;;;;;;;14.30;12.80;;;;;;;11.90;90.26;98253.39;105431;1318;22841;-83
2023/01/02 11:19:48;;;;;;;15.80;12.80;;;;;;;12.02;89.76;98246.88;105245;1320;22245;-83
2023/01/02 11:22:20;;;;;;;20.60;16.00;;;;;;;12.14;89.59;98242.41;104909;1327;22777;-83
2023/01/02 11:25:01;;;;;;;18.60;15.10;;;;;;;12.30;89.34;98245.29;104934;1327;22204;-82
2023/01/02 11:27:32;;;;;;;18.10;12.80;;;;;;;13.03;87.99;98248.45;105418;1319;22253;-82
2023/01/02 11:30:01;;;;;;;20.50;17.50;;;;;;;13.75;87.75;98243.70;105412;1319;22066;-81
2023/01/02 11:32:37;;;;;;;15.20;13.60;;;;;;;14.32;88.25;98238.91;105439;1305;22310;-82
2023/01/02 11:35:32;;;;;;;16.60;12.60;;;;;;;15.12;89.29;98231.92;104937;1327;23012;-82
2023/01/02 11:38:01;;;;;;;18.60;12.20;;;;;;;16.27;88.17;98228.04;105306;1319;22278;-82
2023/01/02 11:40:30;;;;;;;17.50;12.10;;;;;;;17.56;86.75;98225.88;104936;1327;22950;-83
2023/01/02 11:45:53;;;;;;;16.30;13.20;;;;;;;19.96;85.21;98219.64;104884;1326;22275;-81
2023/01/02 11:48:23;;;;;;;14.60;12.00;;;;;;;20.62;83.76;98215.85;104977;1320;22207;-83
2023/01/02 11:50:51;;;;;;;16.00;10.40;;;;;;;21.02;82.02;98222.27;104886;1327;22238;-82
2023/01/02 11:53:28;;;;;;;14.90;11.60;;;;;;;21.38;80.44;98220.35;104775;1321;22289;-82
2023/01/02 11:56:03;;;;;;;13.00;10.80;;;;;;;21.64;76.46;98226.56;105278;1319;22151;-82